createdAt,value
2016-12-15T00:00:58.624Z,0
2016-12-15T00:01:57.995Z,0
2016-12-15T00:02:57.997Z,0
2016-12-15T00:03:57.938Z,0
2016-12-15T00:04:57.974Z,0
2016-12-15T00:05:58.014Z,0
2016-12-15T00:06:58.027Z,0
2016-12-15T00:07:58.013Z,0
2016-12-15T00:08:58.062Z,0
2016-12-15T00:09:57.884Z,0
2016-12-15T00:10:58.053Z,0
2016-12-15T00:11:58.006Z,0
2016-12-15T00:12:58.037Z,0
2016-12-15T00:13:57.954Z,0
2016-12-15T00:14:57.994Z,0
2016-12-15T00:15:58.002Z,0
2016-12-15T00:16:58.996Z,0
2016-12-15T00:17:57.968Z,0
2016-12-15T00:18:58.040Z,0
2016-12-15T00:19:57.943Z,0
2016-12-15T00:20:57.957Z,0
2016-12-15T00:21:57.982Z,0
2016-12-15T00:22:58.050Z,0
2016-12-15T00:23:57.938Z,0
2016-12-15T00:24:58.021Z,0
2016-12-15T00:25:58.021Z,0
2016-12-15T00:26:58.102Z,0
2016-12-15T00:27:57.965Z,0
2016-12-15T00:28:58.029Z,0
2016-12-15T00:29:57.973Z,0
2016-12-15T00:30:57.975Z,0
2016-12-15T00:31:58.017Z,0
2016-12-15T00:32:57.933Z,0
2016-12-15T00:33:58.485Z,0
2016-12-15T00:34:57.994Z,0
2016-12-15T00:35:57.951Z,0
2016-12-15T00:36:58.028Z,0
2016-12-15T00:37:57.978Z,0
2016-12-15T00:38:57.971Z,0
2016-12-15T00:39:57.955Z,0
2016-12-15T00:40:58.003Z,0
2016-12-15T00:41:57.962Z,0
2016-12-15T00:42:58.035Z,0
2016-12-15T00:43:57.973Z,0
2016-12-15T00:44:58.018Z,0
2016-12-15T00:45:57.986Z,0
2016-12-15T00:46:58.077Z,0
2016-12-15T00:47:57.986Z,0
2016-12-15T00:48:58.052Z,0
2016-12-15T00:49:57.924Z,0
2016-12-15T00:50:57.940Z,0
2016-12-15T00:51:58.017Z,0
2016-12-15T00:52:58.004Z,0
2016-12-15T00:53:58.061Z,0
2016-12-15T00:54:57.990Z,0
2016-12-15T00:55:58.193Z,0
2016-12-15T00:56:58.072Z,0
2016-12-15T00:57:57.954Z,0
2016-12-15T00:58:58.003Z,0
2016-12-15T00:59:57.992Z,0
2016-12-15T01:00:58.103Z,0
2016-12-15T01:01:58.024Z,0
2016-12-15T01:02:58.029Z,0
2016-12-15T01:03:57.945Z,0
2016-12-15T01:04:57.994Z,0
2016-12-15T01:05:57.975Z,0
2016-12-15T01:06:58.154Z,0
2016-12-15T01:07:57.997Z,0
2016-12-15T01:08:58.016Z,0
2016-12-15T01:09:57.984Z,0
2016-12-15T01:10:57.995Z,0
2016-12-15T01:11:58.046Z,0
2016-12-15T01:12:58.016Z,0
2016-12-15T01:13:57.996Z,0
2016-12-15T01:14:58.044Z,0
2016-12-15T01:15:57.995Z,0
2016-12-15T01:16:58.021Z,0
2016-12-15T01:17:57.986Z,0
2016-12-15T01:18:57.995Z,0
2016-12-15T01:19:58.014Z,0
2016-12-15T01:20:58.055Z,0
2016-12-15T01:21:57.988Z,0
2016-12-15T01:22:58.058Z,0
2016-12-15T01:23:57.939Z,0
2016-12-15T01:24:57.968Z,0
2016-12-15T01:25:58.279Z,0
2016-12-15T01:26:58.166Z,0
2016-12-15T01:27:58.160Z,0
2016-12-15T01:28:58.089Z,0
2016-12-15T01:29:57.988Z,0
2016-12-15T01:30:58.053Z,0
2016-12-15T01:31:57.979Z,0
2016-12-15T01:32:58.025Z,0
2016-12-15T01:33:58.014Z,0
2016-12-15T01:34:57.996Z,0
2016-12-15T01:35:58.026Z,0
2016-12-15T01:36:58.070Z,0
2016-12-15T01:37:57.997Z,0
2016-12-15T01:38:58.042Z,0
2016-12-15T01:39:58.036Z,0
2016-12-15T01:40:58.013Z,0
2016-12-15T01:41:58.014Z,0
2016-12-15T01:42:58.016Z,0
2016-12-15T01:43:58.009Z,0
2016-12-15T01:44:57.960Z,0
2016-12-15T01:45:57.956Z,0
2016-12-15T01:46:58.021Z,0
2016-12-15T01:47:58.186Z,0
2016-12-15T01:48:57.981Z,0
2016-12-15T01:49:58.035Z,0
2016-12-15T01:50:58.002Z,0
2016-12-15T01:51:58.027Z,0
2016-12-15T01:52:58.048Z,0
2016-12-15T01:53:58.022Z,0
2016-12-15T01:54:58.055Z,0
2016-12-15T01:55:57.996Z,0
2016-12-15T01:56:58.031Z,0
2016-12-15T01:57:57.974Z,0
2016-12-15T01:58:58.013Z,0
2016-12-15T01:59:58.039Z,0
2016-12-15T02:00:58.008Z,0
2016-12-15T02:01:58.207Z,0
2016-12-15T02:02:58.011Z,0
2016-12-15T02:03:58.043Z,0
2016-12-15T02:04:58.035Z,0
2016-12-15T02:05:58.069Z,0
2016-12-15T02:06:58.013Z,0
2016-12-15T02:07:57.982Z,0
2016-12-15T02:08:58.046Z,0
2016-12-15T02:09:58.033Z,0
2016-12-15T02:10:58.066Z,0
2016-12-15T02:11:58.083Z,0
2016-12-15T02:12:58.044Z,0
2016-12-15T02:13:58.108Z,0
2016-12-15T02:14:58.079Z,0
2016-12-15T02:15:58.049Z,0
2016-12-15T02:16:58.046Z,0
2016-12-15T02:17:58.022Z,0
2016-12-15T02:18:58.044Z,0
2016-12-15T02:19:58.075Z,0
2016-12-15T02:20:58.142Z,0
2016-12-15T02:21:58.095Z,0
2016-12-15T02:22:58.106Z,0
2016-12-15T02:23:58.174Z,0
2016-12-15T02:24:58.039Z,0
2016-12-15T02:25:58.057Z,0
2016-12-15T02:26:58.113Z,0
2016-12-15T02:27:58.141Z,0
2016-12-15T02:28:58.046Z,0
2016-12-15T02:29:58.037Z,0
2016-12-15T02:30:58.005Z,0
2016-12-15T02:31:58.118Z,0
2016-12-15T02:32:58.061Z,0
2016-12-15T02:33:58.216Z,0
2016-12-15T02:34:58.077Z,0
2016-12-15T02:35:58.066Z,0
2016-12-15T02:36:58.179Z,0
2016-12-15T02:37:58.035Z,0
2016-12-15T02:38:58.140Z,0
2016-12-15T02:39:58.063Z,0
2016-12-15T02:40:58.109Z,0
2016-12-15T02:41:58.187Z,0
2016-12-15T02:42:58.047Z,0
2016-12-15T02:43:58.052Z,0
2016-12-15T02:44:58.038Z,0
2016-12-15T02:45:58.268Z,0
2016-12-15T02:46:58.096Z,0
2016-12-15T02:47:58.139Z,0
2016-12-15T02:48:58.104Z,0
2016-12-15T02:49:58.727Z,0
2016-12-15T02:50:58.123Z,0
2016-12-15T02:51:58.130Z,0
2016-12-15T02:52:58.110Z,0
2016-12-15T02:53:58.057Z,0
2016-12-15T02:54:58.145Z,0
2016-12-15T02:55:58.145Z,0
2016-12-15T02:56:58.135Z,0
2016-12-15T02:57:58.105Z,0
2016-12-15T02:58:58.075Z,0
2016-12-15T02:59:58.066Z,0
2016-12-15T03:00:58.089Z,0
2016-12-15T03:01:58.279Z,0
2016-12-15T03:02:58.083Z,0
2016-12-15T03:03:58.085Z,0
2016-12-15T03:04:58.055Z,0
2016-12-15T03:05:58.119Z,0
2016-12-15T03:06:58.185Z,0
2016-12-15T03:07:58.161Z,0
2016-12-15T03:08:58.151Z,0
2016-12-15T03:09:58.075Z,0
2016-12-15T03:10:58.147Z,0
2016-12-15T03:11:58.287Z,0
2016-12-15T03:12:58.122Z,0
2016-12-15T03:13:58.061Z,0
2016-12-15T03:14:58.124Z,0
2016-12-15T03:15:58.210Z,0
2016-12-15T03:16:58.190Z,0
2016-12-15T03:17:58.137Z,0
2016-12-15T03:18:58.197Z,0
2016-12-15T03:19:58.065Z,0
2016-12-15T03:20:58.186Z,0
2016-12-15T03:21:58.375Z,0
2016-12-15T03:22:58.285Z,0
2016-12-15T03:23:58.096Z,0
2016-12-15T03:24:58.175Z,0
2016-12-15T03:25:58.321Z,0
2016-12-15T03:26:58.155Z,0
2016-12-15T03:27:58.206Z,0
2016-12-15T03:28:58.129Z,0
2016-12-15T03:29:58.131Z,0
2016-12-15T03:30:58.094Z,0
2016-12-15T03:31:58.186Z,0
2016-12-15T03:32:58.185Z,0
2016-12-15T03:33:58.164Z,0
2016-12-15T03:34:58.146Z,0
2016-12-15T03:35:58.116Z,0
2016-12-15T03:36:58.154Z,0
2016-12-15T03:37:58.115Z,0
2016-12-15T03:38:58.216Z,0
2016-12-15T03:39:58.143Z,0
2016-12-15T03:40:58.132Z,0
2016-12-15T03:41:58.192Z,0
2016-12-15T03:42:58.206Z,0
2016-12-15T03:43:58.160Z,0
2016-12-15T03:44:58.200Z,0
2016-12-15T03:45:58.303Z,0
2016-12-15T03:46:58.180Z,0
2016-12-15T03:47:58.119Z,0
2016-12-15T03:48:58.180Z,0
2016-12-15T03:49:58.200Z,0
2016-12-15T03:50:58.157Z,0
2016-12-15T03:51:58.148Z,0
2016-12-15T03:52:58.155Z,0
2016-12-15T03:53:58.321Z,0
2016-12-15T03:54:58.229Z,0
2016-12-15T03:55:58.195Z,0
2016-12-15T03:56:58.210Z,0
2016-12-15T03:57:58.167Z,0
2016-12-15T03:58:58.163Z,0
2016-12-15T03:59:58.198Z,0
2016-12-15T04:00:58.155Z,0
2016-12-15T04:01:58.312Z,0
2016-12-15T04:02:58.165Z,0
2016-12-15T04:03:58.347Z,0
2016-12-15T04:04:58.186Z,0
2016-12-15T04:05:58.141Z,0
2016-12-15T04:06:58.163Z,0
2016-12-15T04:07:58.344Z,0
2016-12-15T04:08:58.131Z,0
2016-12-15T04:09:58.206Z,0
2016-12-15T04:10:58.155Z,0
2016-12-15T04:11:58.261Z,0
2016-12-15T04:12:58.130Z,0
2016-12-15T04:13:58.175Z,0
2016-12-15T04:14:58.162Z,0
2016-12-15T04:15:58.296Z,0
2016-12-15T04:16:58.119Z,0
2016-12-15T04:17:58.226Z,0
2016-12-15T04:18:58.215Z,0
2016-12-15T04:19:58.132Z,0
2016-12-15T04:20:58.138Z,0
2016-12-15T04:21:58.243Z,0
2016-12-15T04:22:58.155Z,0
2016-12-15T04:23:58.186Z,0
2016-12-15T04:24:58.161Z,0
2016-12-15T04:25:58.172Z,0
2016-12-15T04:26:58.185Z,0
2016-12-15T04:27:58.146Z,0
2016-12-15T04:28:58.162Z,0
2016-12-15T04:29:58.175Z,0
2016-12-15T04:30:58.146Z,0
2016-12-15T04:31:58.333Z,0
2016-12-15T04:32:58.167Z,0
2016-12-15T04:33:58.136Z,0
2016-12-15T04:34:58.243Z,0
2016-12-15T04:35:58.276Z,0
2016-12-15T04:36:58.171Z,0
2016-12-15T04:37:58.345Z,0
2016-12-15T04:38:58.204Z,0
2016-12-15T04:39:58.395Z,0
2016-12-15T04:40:58.185Z,0
2016-12-15T04:41:58.274Z,0
2016-12-15T04:42:58.195Z,0
2016-12-15T04:43:58.335Z,0
2016-12-15T04:44:58.199Z,0
2016-12-15T04:45:58.179Z,0
2016-12-15T04:46:58.269Z,0
2016-12-15T04:47:58.335Z,0
2016-12-15T04:48:58.224Z,0
2016-12-15T04:49:58.329Z,0
2016-12-15T04:50:58.223Z,0
2016-12-15T04:51:58.386Z,0
2016-12-15T04:52:58.175Z,0
2016-12-15T04:53:58.215Z,0
2016-12-15T04:54:58.208Z,0
2016-12-15T04:55:58.253Z,0
2016-12-15T04:56:58.239Z,0
2016-12-15T04:57:58.252Z,0
2016-12-15T04:58:58.235Z,0
2016-12-15T04:59:58.294Z,0
2016-12-15T05:00:58.234Z,0
2016-12-15T05:01:58.385Z,0
2016-12-15T05:02:58.335Z,0
2016-12-15T05:03:58.293Z,0
2016-12-15T05:04:58.225Z,0
2016-12-15T05:05:58.254Z,0
2016-12-15T05:06:58.335Z,0
2016-12-15T05:07:58.257Z,0
2016-12-15T05:08:58.147Z,0
2016-12-15T05:09:58.273Z,0
2016-12-15T05:10:58.275Z,0
2016-12-15T05:11:58.390Z,0
2016-12-15T05:12:58.235Z,0
2016-12-15T05:13:58.322Z,0
2016-12-15T05:14:58.234Z,0
2016-12-15T05:15:58.313Z,0
2016-12-15T05:16:58.274Z,0
2016-12-15T05:17:58.271Z,0
2016-12-15T05:18:58.286Z,0
2016-12-15T05:19:58.324Z,0
2016-12-15T05:20:58.243Z,0
2016-12-15T05:21:58.436Z,0
2016-12-15T05:22:58.211Z,0
2016-12-15T05:23:58.464Z,0
2016-12-15T05:24:58.288Z,0
2016-12-15T05:25:58.299Z,0
2016-12-15T05:26:58.322Z,0
2016-12-15T05:27:58.235Z,0
2016-12-15T05:28:58.294Z,0
2016-12-15T05:29:58.283Z,0
2016-12-15T05:30:58.335Z,0
2016-12-15T05:31:58.447Z,0
2016-12-15T05:32:58.384Z,0
2016-12-15T05:33:58.246Z,0
2016-12-15T05:34:58.242Z,0
2016-12-15T05:35:58.425Z,0
2016-12-15T05:36:58.202Z,0
2016-12-15T05:37:58.260Z,0
2016-12-15T05:38:58.265Z,0
2016-12-15T05:39:58.402Z,0
2016-12-15T05:40:58.275Z,0
2016-12-15T05:41:58.323Z,0
2016-12-15T05:42:58.326Z,0
2016-12-15T05:43:58.365Z,0
2016-12-15T05:44:58.244Z,0
2016-12-15T05:45:58.370Z,0
2016-12-15T05:46:59.335Z,0
2016-12-15T05:47:58.371Z,0
2016-12-15T05:48:58.234Z,0
2016-12-15T05:49:58.285Z,0
2016-12-15T05:50:58.286Z,0
2016-12-15T05:51:58.425Z,0
2016-12-15T05:52:58.371Z,0
2016-12-15T05:53:58.319Z,0
2016-12-15T05:54:58.391Z,0
2016-12-15T05:55:58.422Z,0
2016-12-15T05:56:58.347Z,0
2016-12-15T05:57:58.373Z,0
2016-12-15T05:58:58.250Z,0
2016-12-15T05:59:58.485Z,0
2016-12-15T06:00:58.364Z,0
2016-12-15T06:01:58.349Z,0
2016-12-15T06:02:58.301Z,0
2016-12-15T06:03:58.324Z,0
2016-12-15T06:04:58.365Z,0
2016-12-15T06:05:58.347Z,0
2016-12-15T06:06:58.363Z,0
2016-12-15T06:07:58.361Z,0
2016-12-15T06:08:58.286Z,0
2016-12-15T06:09:58.535Z,0
2016-12-15T06:10:58.420Z,0
2016-12-15T06:11:58.474Z,0
2016-12-15T06:12:58.337Z,0
2016-12-15T06:13:58.346Z,0
2016-12-15T06:14:58.322Z,0
2016-12-15T06:15:58.387Z,0
2016-12-15T06:16:58.360Z,0
2016-12-15T06:17:58.493Z,0
2016-12-15T06:18:58.284Z,0
2016-12-15T06:19:58.305Z,0
2016-12-15T06:20:58.405Z,0
2016-12-15T06:21:58.494Z,0
2016-12-15T06:22:58.346Z,0
2016-12-15T06:23:58.367Z,0
2016-12-15T06:24:58.380Z,0
2016-12-15T06:25:59.951Z,0
2016-12-15T06:26:58.321Z,0
2016-12-15T06:27:58.414Z,0
2016-12-15T06:28:58.423Z,0
2016-12-15T06:29:58.470Z,0
2016-12-15T06:30:58.414Z,0
2016-12-15T06:31:58.413Z,0
2016-12-15T06:32:58.344Z,0
2016-12-15T06:33:58.407Z,0
2016-12-15T06:34:58.417Z,0
2016-12-15T06:35:58.458Z,0
2016-12-15T06:36:58.391Z,0
2016-12-15T06:37:58.443Z,0
2016-12-15T06:38:58.384Z,0
2016-12-15T06:39:58.520Z,0
2016-12-15T06:40:58.303Z,0
2016-12-15T06:41:58.641Z,0
2016-12-15T06:42:58.377Z,0
2016-12-15T06:43:58.414Z,0
2016-12-15T06:44:58.898Z,0
2016-12-15T06:45:58.431Z,0
2016-12-15T06:46:59.628Z,0
2016-12-15T06:47:58.361Z,0
2016-12-15T06:48:59.458Z,0
2016-12-15T06:49:59.098Z,0
2016-12-15T06:50:59.124Z,0
2016-12-15T06:51:58.542Z,0
2016-12-15T06:52:59.642Z,0
2016-12-15T06:53:59.109Z,0
2016-12-15T06:55:00.102Z,0
2016-12-15T06:55:59.974Z,0
2016-12-15T06:56:58.427Z,0
2016-12-15T06:57:58.400Z,0
2016-12-15T06:58:59.348Z,4
2016-12-15T06:59:58.465Z,4
2016-12-15T07:00:58.395Z,0
2016-12-15T07:01:58.430Z,0
2016-12-15T07:02:59.531Z,4
2016-12-15T07:03:58.471Z,4
2016-12-15T07:04:58.342Z,0
2016-12-15T07:05:58.501Z,4
2016-12-15T07:06:58.395Z,8
2016-12-15T07:07:58.407Z,4
2016-12-15T07:08:58.441Z,8
2016-12-15T07:09:58.461Z,8
2016-12-15T07:10:58.484Z,8
2016-12-15T07:11:58.431Z,8
2016-12-15T07:12:58.389Z,12
2016-12-15T07:13:58.454Z,12
2016-12-15T07:14:58.421Z,12
2016-12-15T07:15:58.424Z,16
2016-12-15T07:16:58.449Z,16
2016-12-15T07:17:58.610Z,20
2016-12-15T07:18:58.450Z,20
2016-12-15T07:19:58.532Z,24
2016-12-15T07:20:58.441Z,24
2016-12-15T07:21:58.514Z,28
2016-12-15T07:22:58.386Z,32
2016-12-15T07:27:26.516Z,44
2016-12-15T07:28:26.491Z,52
2016-12-15T07:29:26.328Z,52
2016-12-15T07:30:26.469Z,56
2016-12-15T07:31:26.540Z,56
2016-12-15T07:32:26.420Z,64
2016-12-15T07:33:26.460Z,68
2016-12-15T07:34:26.503Z,76
2016-12-15T07:35:26.519Z,76
2016-12-15T07:36:26.423Z,84
2016-12-15T07:37:26.682Z,88
2016-12-15T07:38:26.491Z,96
2016-12-15T07:39:26.551Z,100
2016-12-15T07:40:26.360Z,108
2016-12-15T07:41:26.499Z,124
2016-12-15T07:42:26.513Z,128
2016-12-15T07:43:26.434Z,128
2016-12-15T07:44:26.461Z,136
2016-12-15T07:45:26.339Z,136
2016-12-15T07:46:26.299Z,140
2016-12-15T07:47:26.446Z,144
2016-12-15T07:48:26.330Z,156
2016-12-15T07:49:26.491Z,168
2016-12-15T07:50:26.546Z,184
2016-12-15T07:51:26.459Z,200
2016-12-15T07:52:26.451Z,204
2016-12-15T07:53:26.463Z,228
2016-12-15T07:54:26.390Z,220
2016-12-15T07:55:26.392Z,216
2016-12-15T07:56:26.500Z,216
2016-12-15T07:57:26.601Z,228
2016-12-15T07:58:26.370Z,240
2016-12-15T07:59:26.375Z,252
2016-12-15T08:00:26.537Z,252
2016-12-15T08:01:26.500Z,256
2016-12-15T08:02:26.521Z,288
2016-12-15T08:03:26.602Z,360
2016-12-15T08:04:26.592Z,388
2016-12-15T08:05:26.632Z,380
2016-12-15T08:06:26.612Z,360
2016-12-15T08:07:26.480Z,360
2016-12-15T08:08:26.551Z,372
2016-12-15T08:09:26.449Z,380
2016-12-15T08:10:26.532Z,380
2016-12-15T08:11:26.451Z,408
2016-12-15T08:12:26.654Z,396
2016-12-15T08:13:26.417Z,444
2016-12-15T08:14:26.751Z,452
2016-12-15T08:15:26.502Z,456
2016-12-15T08:16:27.289Z,432
2016-12-15T08:17:26.512Z,440
2016-12-15T08:18:26.433Z,444
2016-12-15T08:19:26.502Z,448
2016-12-15T08:20:26.594Z,440
2016-12-15T08:21:26.517Z,488
2016-12-15T08:22:26.516Z,476
2016-12-15T08:23:26.481Z,468
2016-12-15T08:24:26.474Z,468
2016-12-15T08:25:26.478Z,488
2016-12-15T08:26:26.606Z,552
2016-12-15T08:27:26.518Z,736
2016-12-15T08:28:26.503Z,692
2016-12-15T08:29:26.662Z,688
2016-12-15T08:30:26.573Z,676
2016-12-15T08:31:26.664Z,700
2016-12-15T08:32:26.653Z,924
2016-12-15T08:33:26.463Z,900
2016-12-15T08:34:26.464Z,828
2016-12-15T08:35:26.595Z,972
2016-12-15T08:36:31.070Z,1036
2016-12-15T08:37:26.624Z,1032
2016-12-15T08:38:26.485Z,1044
2016-12-15T08:39:26.534Z,1004
2016-12-15T08:40:26.579Z,948
2016-12-15T08:41:26.444Z,1016
2016-12-15T08:42:26.565Z,1132
2016-12-15T08:43:26.663Z,1032
2016-12-15T08:44:26.426Z,1048
2016-12-15T08:45:26.674Z,1104
2016-12-15T08:46:26.490Z,1184
2016-12-15T08:47:26.552Z,1300
2016-12-15T08:48:26.514Z,1180
2016-12-15T08:49:26.508Z,1232
2016-12-15T08:50:26.685Z,1264
2016-12-15T08:51:26.430Z,1248
2016-12-15T08:52:26.635Z,1244
2016-12-15T08:53:26.476Z,1364
2016-12-15T08:54:27.163Z,1280
2016-12-15T08:55:26.447Z,1372
2016-12-15T08:56:26.615Z,1360
2016-12-15T08:57:27.188Z,1424
2016-12-15T08:58:26.540Z,1488
2016-12-15T08:59:26.471Z,1424
2016-12-15T09:00:26.708Z,1580
2016-12-15T09:01:26.583Z,1584
2016-12-15T09:02:26.476Z,1504
2016-12-15T09:03:26.607Z,1488
2016-12-15T09:04:26.575Z,1528
2016-12-15T09:05:26.627Z,1548
2016-12-15T09:06:26.719Z,1504
2016-12-15T09:07:26.578Z,1620
2016-12-15T09:08:26.866Z,1632
2016-12-15T09:09:26.723Z,1788
2016-12-15T09:10:26.577Z,1724
2016-12-15T09:11:26.735Z,1688
2016-12-15T09:12:26.606Z,1824
2016-12-15T09:13:26.861Z,1680
2016-12-15T09:14:26.599Z,1744
2016-12-15T09:15:26.602Z,1764
2016-12-15T09:16:26.635Z,1820
2016-12-15T09:17:26.641Z,1816
2016-12-15T09:18:26.630Z,1808
2016-12-15T09:19:26.576Z,1868
2016-12-15T09:20:26.597Z,1884
2016-12-15T09:21:26.575Z,1924
2016-12-15T09:22:26.756Z,1840
2016-12-15T09:23:26.755Z,1924
2016-12-15T09:24:26.668Z,1924
2016-12-15T09:25:26.687Z,1936
2016-12-15T09:26:26.760Z,2028
2016-12-15T09:27:26.517Z,2140
2016-12-15T09:28:26.668Z,2036
2016-12-15T09:29:26.456Z,1992
2016-12-15T09:30:26.541Z,2084
2016-12-15T09:31:26.712Z,2276
2016-12-15T09:32:26.788Z,2064
2016-12-15T09:33:26.595Z,2176
2016-12-15T09:34:26.534Z,2204
2016-12-15T09:35:26.668Z,2132
2016-12-15T09:36:26.580Z,2272
2016-12-15T09:37:26.649Z,2080
2016-12-15T09:38:26.728Z,2288
2016-12-15T09:39:26.685Z,2280
2016-12-15T09:40:26.669Z,2344
2016-12-15T09:41:26.850Z,2672
2016-12-15T09:42:26.811Z,2552
2016-12-15T09:43:26.598Z,2648
2016-12-15T09:44:26.642Z,2380
2016-12-15T09:45:26.623Z,2516
2016-12-15T09:46:26.698Z,2420
2016-12-15T09:47:26.683Z,2432
2016-12-15T09:48:26.991Z,2416
2016-12-15T09:49:26.793Z,2296
2016-12-15T09:50:26.663Z,2692
2016-12-15T09:51:26.630Z,2436
2016-12-15T09:52:26.733Z,2424
2016-12-15T09:53:26.759Z,2312
2016-12-15T09:54:26.895Z,2300
2016-12-15T09:55:26.831Z,2332
2016-12-15T09:56:26.670Z,2420
2016-12-15T09:57:26.759Z,2312
2016-12-15T09:58:26.578Z,2384
2016-12-15T09:59:26.680Z,2192
2016-12-15T10:00:26.599Z,2376
2016-12-15T10:01:27.210Z,2408
2016-12-15T10:02:26.789Z,2456
2016-12-15T10:03:26.980Z,2536
2016-12-15T10:04:26.662Z,2652
2016-12-15T10:05:26.610Z,2892
2016-12-15T10:06:27.324Z,2648
2016-12-15T10:07:26.625Z,2496
2016-12-15T10:08:26.630Z,2804
2016-12-15T10:09:26.625Z,2992
2016-12-15T10:10:26.639Z,2852
2016-12-15T10:11:26.902Z,2680
2016-12-15T10:12:26.791Z,2900
2016-12-15T10:13:26.742Z,2884
2016-12-15T10:14:26.640Z,2772
2016-12-15T10:15:26.621Z,2700
2016-12-15T10:16:26.710Z,2912
2016-12-15T10:17:26.615Z,2836
2016-12-15T10:18:26.832Z,2908
2016-12-15T10:19:26.558Z,2860
2016-12-15T10:20:26.676Z,2844
2016-12-15T10:21:26.634Z,2764
2016-12-15T10:22:26.774Z,3052
2016-12-15T10:23:26.639Z,3008
2016-12-15T10:24:26.871Z,2804
2016-12-15T10:25:26.833Z,3040
2016-12-15T10:26:26.934Z,2932
2016-12-15T10:27:26.783Z,2948
2016-12-15T10:28:26.719Z,2828
2016-12-15T10:29:26.758Z,2920
2016-12-15T10:30:26.988Z,3076
2016-12-15T10:31:26.706Z,3040
2016-12-15T10:32:27.212Z,3288
2016-12-15T10:33:26.853Z,3172
2016-12-15T10:34:27.310Z,3252
2016-12-15T10:35:27.124Z,3540
2016-12-15T10:36:27.725Z,3916
2016-12-15T10:37:26.959Z,3768
2016-12-15T10:38:26.921Z,3492
2016-12-15T10:39:26.890Z,4508
2016-12-15T10:40:26.989Z,3672
2016-12-15T10:41:26.905Z,4108
2016-12-15T10:42:26.930Z,4520
2016-12-15T10:43:26.822Z,4568
2016-12-15T10:44:26.782Z,4116
2016-12-15T10:45:26.863Z,4700
2016-12-15T10:46:26.764Z,4464
2016-12-15T10:47:27.023Z,4548
2016-12-15T10:48:26.828Z,5080
2016-12-15T10:49:26.969Z,4844
2016-12-15T10:50:27.287Z,4712
2016-12-15T10:51:27.257Z,4704
2016-12-15T10:52:26.772Z,4588
2016-12-15T10:53:26.973Z,4280
2016-12-15T10:54:26.739Z,4828
2016-12-15T10:55:26.933Z,4604
2016-12-15T10:56:26.795Z,4464
2016-12-15T10:57:26.830Z,4284
2016-12-15T10:58:26.977Z,4344
2016-12-15T10:59:26.808Z,4244
2016-12-15T11:00:27.372Z,4152
2016-12-15T11:01:27.056Z,3868
2016-12-15T11:02:27.221Z,4116
2016-12-15T11:03:27.492Z,3892
2016-12-15T11:04:27.279Z,3708
2016-12-15T11:05:27.754Z,3824
2016-12-15T11:06:26.961Z,3492
2016-12-15T11:07:26.873Z,3596
2016-12-15T11:08:26.907Z,3540
2016-12-15T11:09:27.090Z,3520
2016-12-15T11:10:26.904Z,3664
2016-12-15T11:11:27.084Z,3792
2016-12-15T11:12:27.202Z,3732
2016-12-15T11:13:26.945Z,3564
2016-12-15T11:14:27.416Z,3688
2016-12-15T11:15:26.919Z,3708
2016-12-15T11:16:27.026Z,3764
2016-12-15T11:17:26.831Z,3624
2016-12-15T11:18:26.875Z,3556
2016-12-15T11:19:26.796Z,3316
2016-12-15T11:20:26.876Z,3272
2016-12-15T11:21:26.736Z,3424
2016-12-15T11:22:27.262Z,3488
2016-12-15T11:23:26.848Z,3428
2016-12-15T11:24:26.743Z,3580
2016-12-15T11:25:26.839Z,3532
2016-12-15T11:26:26.770Z,3512
2016-12-15T11:27:26.763Z,3584
2016-12-15T11:28:26.962Z,3440
2016-12-15T11:29:26.710Z,3360
2016-12-15T11:30:26.838Z,3380
2016-12-15T11:31:26.803Z,3440
2016-12-15T11:32:26.720Z,3416
2016-12-15T11:33:26.789Z,3348
2016-12-15T11:34:26.783Z,3320
2016-12-15T11:35:26.857Z,3712
2016-12-15T11:36:26.883Z,4036
2016-12-15T11:37:26.887Z,3616
2016-12-15T11:38:26.817Z,3516
2016-12-15T11:39:26.891Z,3840
2016-12-15T11:40:27.038Z,3888
2016-12-15T11:41:26.929Z,3752
2016-12-15T11:42:26.978Z,4304
2016-12-15T11:43:26.861Z,4064
2016-12-15T11:44:27.037Z,4016
2016-12-15T11:45:26.778Z,3948
2016-12-15T11:46:26.947Z,4556
2016-12-15T11:47:26.846Z,4784
2016-12-15T11:48:27.012Z,4900
2016-12-15T11:49:26.835Z,4512
2016-12-15T11:50:27.040Z,4760
2016-12-15T11:51:26.912Z,5320
2016-12-15T11:52:26.884Z,5384
2016-12-15T11:53:26.893Z,4240
2016-12-15T11:54:26.980Z,4068
2016-12-15T11:55:26.976Z,3856
2016-12-15T11:56:27.031Z,3848
2016-12-15T11:57:27.926Z,4068
2016-12-15T11:58:26.839Z,4116
2016-12-15T11:59:26.842Z,4508
2016-12-15T12:00:26.903Z,4664
2016-12-15T12:01:26.925Z,4252
2016-12-15T12:02:27.046Z,4176
2016-12-15T12:03:26.918Z,4248
2016-12-15T12:04:27.024Z,4232
2016-12-15T12:05:26.784Z,4240
2016-12-15T12:06:26.831Z,4160
2016-12-15T12:07:26.877Z,4084
2016-12-15T12:08:26.861Z,4088
2016-12-15T12:09:26.869Z,4392
2016-12-15T12:10:26.877Z,4296
2016-12-15T12:11:26.874Z,4092
2016-12-15T12:12:26.968Z,4124
2016-12-15T12:13:26.937Z,3896
2016-12-15T12:14:26.850Z,4244
2016-12-15T12:15:26.980Z,4284
2016-12-15T12:16:26.988Z,4256
2016-12-15T12:17:26.942Z,4160
2016-12-15T12:18:26.936Z,4188
2016-12-15T12:19:27.029Z,4040
2016-12-15T12:20:26.909Z,4612
2016-12-15T12:21:26.903Z,4440
2016-12-15T12:22:26.971Z,3976
2016-12-15T12:23:26.913Z,3664
2016-12-15T12:24:26.939Z,3936
2016-12-15T12:25:26.995Z,3972
2016-12-15T12:26:27.148Z,4040
2016-12-15T12:27:26.983Z,4168
2016-12-15T12:28:26.903Z,4388
2016-12-15T12:29:26.756Z,4064
2016-12-15T12:30:26.842Z,4032
2016-12-15T12:31:26.833Z,4124
2016-12-15T12:32:26.745Z,4264
2016-12-15T12:33:26.835Z,4244
2016-12-15T12:34:26.867Z,4316
2016-12-15T12:35:26.853Z,4288
2016-12-15T12:36:26.999Z,4152
2016-12-15T12:37:26.893Z,4428
2016-12-15T12:38:26.830Z,4304
2016-12-15T12:39:28.036Z,4356
2016-12-15T12:40:26.904Z,4544
2016-12-15T12:41:26.783Z,4864
2016-12-15T12:42:26.871Z,4628
2016-12-15T12:43:26.862Z,4760
2016-12-15T12:44:26.825Z,5024
2016-12-15T12:45:26.940Z,4608
2016-12-15T12:46:26.824Z,5504
2016-12-15T12:47:26.863Z,5924
2016-12-15T12:48:26.838Z,5348
2016-12-15T12:49:26.749Z,5680
2016-12-15T12:50:26.910Z,6236
2016-12-15T12:51:26.842Z,6828
2016-12-15T12:52:27.046Z,6056
2016-12-15T12:53:27.112Z,5196
2016-12-15T12:54:27.085Z,6732
2016-12-15T12:55:27.164Z,7548
2016-12-15T12:56:27.131Z,6576
2016-12-15T12:57:26.965Z,5700
2016-12-15T12:58:27.035Z,5740
2016-12-15T12:59:26.935Z,5116
2016-12-15T13:00:26.930Z,4716
2016-12-15T13:01:28.269Z,4520
2016-12-15T13:02:27.125Z,4708
2016-12-15T13:03:26.960Z,5160
2016-12-15T13:04:26.914Z,5028
2016-12-15T13:05:26.933Z,5584
2016-12-15T13:06:27.056Z,5408
2016-12-15T13:07:26.958Z,5352
2016-12-15T13:08:27.012Z,4608
2016-12-15T13:09:26.994Z,4728
2016-12-15T13:10:27.030Z,5304
2016-12-15T13:11:27.157Z,5348
2016-12-15T13:12:26.970Z,5088
2016-12-15T13:13:26.922Z,4780
2016-12-15T13:14:26.960Z,5168
2016-12-15T13:15:27.666Z,5180
2016-12-15T13:16:27.706Z,4736
2016-12-15T13:17:27.156Z,5168
2016-12-15T13:18:26.924Z,5428
2016-12-15T13:19:27.036Z,5712
2016-12-15T13:20:27.291Z,5372
2016-12-15T13:21:27.094Z,4388
2016-12-15T13:22:26.976Z,4144
2016-12-15T13:23:27.071Z,4376
2016-12-15T13:24:26.991Z,4384
2016-12-15T13:25:27.952Z,4164
2016-12-15T13:26:26.970Z,3716
2016-12-15T13:27:26.935Z,3524
2016-12-15T13:28:27.046Z,4092
2016-12-15T13:29:26.862Z,3604
2016-12-15T13:30:26.991Z,2960
2016-12-15T13:31:26.945Z,3296
2016-12-15T13:32:27.138Z,3692
2016-12-15T13:33:26.926Z,3744
2016-12-15T13:34:27.688Z,3708
2016-12-15T13:35:26.978Z,3552
2016-12-15T13:36:27.056Z,3688
2016-12-15T13:37:27.026Z,3400
2016-12-15T13:38:26.936Z,3208
2016-12-15T13:39:27.054Z,3168
2016-12-15T13:40:26.960Z,3324
2016-12-15T13:41:27.045Z,3368
2016-12-15T13:42:26.994Z,3312
2016-12-15T13:43:26.965Z,2920
2016-12-15T13:44:27.174Z,2864
2016-12-15T13:45:27.039Z,2764
2016-12-15T13:46:26.968Z,2508
2016-12-15T13:47:27.093Z,2352
2016-12-15T13:48:27.351Z,2424
2016-12-15T13:49:26.942Z,2696
2016-12-15T13:50:26.966Z,2840
2016-12-15T13:51:26.813Z,2644
2016-12-15T13:52:26.937Z,2608
2016-12-15T13:53:26.884Z,2520
2016-12-15T13:54:27.074Z,2768
2016-12-15T13:55:27.082Z,3160
2016-12-15T13:56:27.075Z,3612
2016-12-15T13:57:27.043Z,3248
2016-12-15T13:58:26.984Z,2940
2016-12-15T13:59:27.006Z,2752
2016-12-15T14:00:27.083Z,2640
2016-12-15T14:01:27.013Z,2524
2016-12-15T14:02:26.929Z,2464
2016-12-15T14:03:26.941Z,2340
2016-12-15T14:04:26.922Z,2244
2016-12-15T14:05:26.860Z,1956
2016-12-15T14:06:26.911Z,1996
2016-12-15T14:07:26.986Z,2004
2016-12-15T14:08:27.039Z,1760
2016-12-15T14:09:27.002Z,1716